sensor_id;sensor_type;location;lat;lon;timestamp;temperature;humidity
15617;DHT22;7908;51.688;7.130;2023-05-23T00:00:50;16.20;99.90
15617;DHT22;7908;51.688;7.130;2023-05-23T00:03:19;16.20;99.90
15617;DHT22;7908;51.688;7.130;2023-05-23T00:05:49;16.20;99.90
15617;DHT22;7908;51.688;7.130;2023-05-23T00:08:18;16.10;99.90
15617;DHT22;7908;51.688;7.130;2023-05-23T00:10:47;16.10;99.90
15617;DHT22;7908;51.688;7.130;2023-05-23T00:13:16;16.10;99.90
15617;DHT22;7908;51.688;7.130;2023-05-23T00:15:46;16.10;99.90
15617;DHT22;7908;51.688;7.130;2023-05-23T00:18:15;16.00;99.90
15617;DHT22;7908;51.688;7.130;2023-05-23T00:20:44;16.00;99.90
15617;DHT22;7908;51.688;7.130;2023-05-23T00:23:13;15.90;99.90
15617;DHT22;7908;51.688;7.130;2023-05-23T00:25:45;15.90;99.90
15617;DHT22;7908;51.688;7.130;2023-05-23T00:28:19;15.90;99.90
15617;DHT22;7908;51.688;7.130;2023-05-23T00:30:50;15.80;99.90
15617;DHT22;7908;51.688;7.130;2023-05-23T00:33:19;15.80;99.90
15617;DHT22;7908;51.688;7.130;2023-05-23T00:35:49;15.80;99.90
15617;DHT22;7908;51.688;7.130;2023-05-23T00:38:18;15.70;99.90
15617;DHT22;7908;51.688;7.130;2023-05-23T00:40:49;15.70;99.90
15617;DHT22;7908;51.688;7.130;2023-05-23T00:43:17;15.60;99.90
15617;DHT22;7908;51.688;7.130;2023-05-23T00:45:50;15.60;99.90
15617;DHT22;7908;51.688;7.130;2023-05-23T00:48:19;15.60;99.90
15617;DHT22;7908;51.688;7.130;2023-05-23T00:50:48;15.60;99.90
15617;DHT22;7908;51.688;7.130;2023-05-23T00:53:16;15.60;99.90
15617;DHT22;7908;51.688;7.130;2023-05-23T00:55:45;15.60;99.90
15617;DHT22;7908;51.688;7.130;2023-05-23T00:58:15;15.60;99.90
15617;DHT22;7908;51.688;7.130;2023-05-23T01:00:44;15.60;99.90
15617;DHT22;7908;51.688;7.130;2023-05-23T01:03:15;15.60;99.90
15617;DHT22;7908;51.688;7.130;2023-05-23T01:05:45;15.60;99.90
15617;DHT22;7908;51.688;7.130;2023-05-23T01:08:13;15.60;99.90
15617;DHT22;7908;51.688;7.130;2023-05-23T01:10:42;15.60;99.90
15617;DHT22;7908;51.688;7.130;2023-05-23T01:13:19;15.60;99.90
15617;DHT22;7908;51.688;7.130;2023-05-23T01:15:54;15.60;99.90
15617;DHT22;7908;51.688;7.130;2023-05-23T01:18:35;15.60;99.90
15617;DHT22;7908;51.688;7.130;2023-05-23T01:21:11;15.60;99.90
15617;DHT22;7908;51.688;7.130;2023-05-23T01:24:06;15.60;99.90
15617;DHT22;7908;51.688;7.130;2023-05-23T01:26:58;15.60;99.90
15617;DHT22;7908;51.688;7.130;2023-05-23T01:29:34;15.70;99.90
15617;DHT22;7908;51.688;7.130;2023-05-23T01:32:08;15.70;99.90
15617;DHT22;7908;51.688;7.130;2023-05-23T01:34:39;15.70;99.90
15617;DHT22;7908;51.688;7.130;2023-05-23T01:37:09;15.70;99.90
15617;DHT22;7908;51.688;7.130;2023-05-23T01:39:41;15.70;99.90
15617;DHT22;7908;51.688;7.130;2023-05-23T01:42:10;15.60;99.90
15617;DHT22;7908;51.688;7.130;2023-05-23T01:44:43;15.70;99.90
15617;DHT22;7908;51.688;7.130;2023-05-23T01:47:14;15.70;99.90
15617;DHT22;7908;51.688;7.130;2023-05-23T01:49:44;15.70;99.90
15617;DHT22;7908;51.688;7.130;2023-05-23T01:52:14;15.70;99.90
15617;DHT22;7908;51.688;7.130;2023-05-23T01:54:43;15.80;99.90
15617;DHT22;7908;51.688;7.130;2023-05-23T01:57:15;15.70;99.90
15617;DHT22;7908;51.688;7.130;2023-05-23T01:59:46;15.70;99.90
15617;DHT22;7908;51.688;7.130;2023-05-23T02:02:15;15.70;99.90
15617;DHT22;7908;51.688;7.130;2023-05-23T02:04:44;15.70;99.90
15617;DHT22;7908;51.688;7.130;2023-05-23T02:07:13;15.60;99.90
15617;DHT22;7908;51.688;7.130;2023-05-23T02:09:41;15.60;99.90
15617;DHT22;7908;51.688;7.130;2023-05-23T02:12:11;15.60;99.90
15617;DHT22;7908;51.688;7.130;2023-05-23T02:14:39;15.60;99.90
15617;DHT22;7908;51.688;7.130;2023-05-23T02:17:10;15.70;99.90
15617;DHT22;7908;51.688;7.130;2023-05-23T02:19:40;15.60;99.90
15617;DHT22;7908;51.688;7.130;2023-05-23T02:22:09;15.70;99.90
15617;DHT22;7908;51.688;7.130;2023-05-23T02:24:38;15.60;99.90
15617;DHT22;7908;51.688;7.130;2023-05-23T02:27:08;15.60;99.90
15617;DHT22;7908;51.688;7.130;2023-05-23T02:29:37;15.60;99.90
15617;DHT22;7908;51.688;7.130;2023-05-23T02:32:06;15.50;99.90
15617;DHT22;7908;51.688;7.130;2023-05-23T02:34:40;15.60;99.90
15617;DHT22;7908;51.688;7.130;2023-05-23T02:37:09;15.60;99.90
15617;DHT22;7908;51.688;7.130;2023-05-23T02:39:37;15.50;99.90
15617;DHT22;7908;51.688;7.130;2023-05-23T02:42:06;15.50;99.90
15617;DHT22;7908;51.688;7.130;2023-05-23T02:44:34;15.40;99.90
15617;DHT22;7908;51.688;7.130;2023-05-23T02:47:03;15.40;99.90
15617;DHT22;7908;51.688;7.130;2023-05-23T02:49:32;15.40;99.90
15617;DHT22;7908;51.688;7.130;2023-05-23T02:52:02;15.40;99.90
15617;DHT22;7908;51.688;7.130;2023-05-23T02:54:32;15.40;99.90
15617;DHT22;7908;51.688;7.130;2023-05-23T02:57:01;15.30;99.90
15617;DHT22;7908;51.688;7.130;2023-05-23T02:59:30;15.30;99.90
15617;DHT22;7908;51.688;7.130;2023-05-23T03:01:59;15.40;99.90
15617;DHT22;7908;51.688;7.130;2023-05-23T03:04:27;15.40;99.90
15617;DHT22;7908;51.688;7.130;2023-05-23T03:06:56;15.30;99.90
15617;DHT22;7908;51.688;7.130;2023-05-23T03:09:27;15.30;99.90
15617;DHT22;7908;51.688;7.130;2023-05-23T03:11:56;15.20;99.90
15617;DHT22;7908;51.688;7.130;2023-05-23T03:14:27;15.20;99.90
15617;DHT22;7908;51.688;7.130;2023-05-23T03:16:57;15.10;99.90
15617;DHT22;7908;51.688;7.130;2023-05-23T03:19:25;15.10;99.90
15617;DHT22;7908;51.688;7.130;2023-05-23T03:21:54;15.10;99.90
15617;DHT22;7908;51.688;7.130;2023-05-23T03:24:23;15.10;99.90
15617;DHT22;7908;51.688;7.130;2023-05-23T03:26:54;14.90;99.90
15617;DHT22;7908;51.688;7.130;2023-05-23T03:29:23;14.90;99.90
15617;DHT22;7908;51.688;7.130;2023-05-23T03:31:52;14.90;99.90
15617;DHT22;7908;51.688;7.130;2023-05-23T03:34:20;14.90;99.90
15617;DHT22;7908;51.688;7.130;2023-05-23T03:36:49;14.90;99.90
15617;DHT22;7908;51.688;7.130;2023-05-23T03:39:18;14.90;99.90
15617;DHT22;7908;51.688;7.130;2023-05-23T03:41:47;14.90;99.90
15617;DHT22;7908;51.688;7.130;2023-05-23T03:44:18;14.80;99.90
15617;DHT22;7908;51.688;7.130;2023-05-23T03:46:47;14.90;99.90
15617;DHT22;7908;51.688;7.130;2023-05-23T03:49:16;14.90;99.90
15617;DHT22;7908;51.688;7.130;2023-05-23T03:51:45;14.80;99.90
15617;DHT22;7908;51.688;7.130;2023-05-23T03:54:13;14.80;99.90
15617;DHT22;7908;51.688;7.130;2023-05-23T03:56:43;14.80;99.90
15617;DHT22;7908;51.688;7.130;2023-05-23T03:59:12;14.80;99.90
15617;DHT22;7908;51.688;7.130;2023-05-23T04:01:42;14.80;99.90
15617;DHT22;7908;51.688;7.130;2023-05-23T04:04:11;14.80;99.90
15617;DHT22;7908;51.688;7.130;2023-05-23T04:06:40;14.80;99.90
15617;DHT22;7908;51.688;7.130;2023-05-23T04:09:09;14.80;99.90
15617;DHT22;7908;51.688;7.130;2023-05-23T04:11:37;14.80;99.90
15617;DHT22;7908;51.688;7.130;2023-05-23T04:14:07;14.80;99.90
15617;DHT22;7908;51.688;7.130;2023-05-23T04:16:36;14.70;99.90
15617;DHT22;7908;51.688;7.130;2023-05-23T04:19:09;14.80;99.90
15617;DHT22;7908;51.688;7.130;2023-05-23T04:21:38;14.80;99.90
15617;DHT22;7908;51.688;7.130;2023-05-23T04:24:07;14.80;99.90
15617;DHT22;7908;51.688;7.130;2023-05-23T04:26:35;14.80;99.90
15617;DHT22;7908;51.688;7.130;2023-05-23T04:29:05;14.80;99.90
15617;DHT22;7908;51.688;7.130;2023-05-23T04:31:34;14.80;99.90
15617;DHT22;7908;51.688;7.130;2023-05-23T04:34:04;14.80;99.90
15617;DHT22;7908;51.688;7.130;2023-05-23T04:36:35;14.80;99.90
15617;DHT22;7908;51.688;7.130;2023-05-23T04:39:04;14.80;99.90
15617;DHT22;7908;51.688;7.130;2023-05-23T04:41:33;14.80;99.90
15617;DHT22;7908;51.688;7.130;2023-05-23T04:44:02;14.80;99.90
15617;DHT22;7908;51.688;7.130;2023-05-23T04:46:32;14.70;99.90
15617;DHT22;7908;51.688;7.130;2023-05-23T04:49:01;14.80;99.90
15617;DHT22;7908;51.688;7.130;2023-05-23T04:51:30;14.70;99.90
15617;DHT22;7908;51.688;7.130;2023-05-23T04:54:01;14.80;99.90
15617;DHT22;7908;51.688;7.130;2023-05-23T04:56:30;14.80;99.90
15617;DHT22;7908;51.688;7.130;2023-05-23T04:58:59;14.80;99.90
15617;DHT22;7908;51.688;7.130;2023-05-23T05:01:29;14.80;99.90
15617;DHT22;7908;51.688;7.130;2023-05-23T05:03:58;14.80;99.90
15617;DHT22;7908;51.688;7.130;2023-05-23T05:06:27;14.80;99.90
15617;DHT22;7908;51.688;7.130;2023-05-23T05:08:56;14.80;99.90
15617;DHT22;7908;51.688;7.130;2023-05-23T05:11:26;14.70;99.90
15617;DHT22;7908;51.688;7.130;2023-05-23T05:13:55;14.70;99.90
15617;DHT22;7908;51.688;7.130;2023-05-23T05:16:25;14.70;99.90
15617;DHT22;7908;51.688;7.130;2023-05-23T05:18:54;14.70;99.90
15617;DHT22;7908;51.688;7.130;2023-05-23T05:21:23;14.70;99.90
15617;DHT22;7908;51.688;7.130;2023-05-23T05:23:52;14.70;99.90
15617;DHT22;7908;51.688;7.130;2023-05-23T05:26:22;14.70;99.90
15617;DHT22;7908;51.688;7.130;2023-05-23T05:28:52;14.60;99.90
15617;DHT22;7908;51.688;7.130;2023-05-23T05:31:21;14.60;99.90
15617;DHT22;7908;51.688;7.130;2023-05-23T05:33:50;14.60;99.90
15617;DHT22;7908;51.688;7.130;2023-05-23T05:36:19;14.60;99.90
15617;DHT22;7908;51.688;7.130;2023-05-23T05:38:48;14.60;99.90
15617;DHT22;7908;51.688;7.130;2023-05-23T05:41:20;14.60;99.90
15617;DHT22;7908;51.688;7.130;2023-05-23T05:43:54;14.60;99.90
15617;DHT22;7908;51.688;7.130;2023-05-23T05:46:23;14.60;99.90
15617;DHT22;7908;51.688;7.130;2023-05-23T05:48:51;14.60;99.90
15617;DHT22;7908;51.688;7.130;2023-05-23T05:51:20;14.70;99.90
15617;DHT22;7908;51.688;7.130;2023-05-23T05:53:49;14.70;99.90
15617;DHT22;7908;51.688;7.130;2023-05-23T05:56:18;14.70;99.90
15617;DHT22;7908;51.688;7.130;2023-05-23T05:58:48;14.70;99.90
15617;DHT22;7908;51.688;7.130;2023-05-23T06:01:18;14.70;99.90
15617;DHT22;7908;51.688;7.130;2023-05-23T06:03:47;14.70;99.90
15617;DHT22;7908;51.688;7.130;2023-05-23T06:06:17;14.70;99.90
15617;DHT22;7908;51.688;7.130;2023-05-23T06:08:46;14.70;99.90
15617;DHT22;7908;51.688;7.130;2023-05-23T06:11:15;14.60;99.90
15617;DHT22;7908;51.688;7.130;2023-05-23T06:13:44;14.60;99.90
15617;DHT22;7908;51.688;7.130;2023-05-23T06:16:13;14.70;99.90
15617;DHT22;7908;51.688;7.130;2023-05-23T06:18:44;14.70;99.90
15617;DHT22;7908;51.688;7.130;2023-05-23T06:21:13;14.70;99.90
15617;DHT22;7908;51.688;7.130;2023-05-23T06:23:42;14.70;99.90
15617;DHT22;7908;51.688;7.130;2023-05-23T06:26:10;14.60;99.90
15617;DHT22;7908;51.688;7.130;2023-05-23T06:28:39;14.70;99.90
15617;DHT22;7908;51.688;7.130;2023-05-23T06:31:08;14.60;99.90
15617;DHT22;7908;51.688;7.130;2023-05-23T06:33:37;14.60;99.90
15617;DHT22;7908;51.688;7.130;2023-05-23T06:36:08;14.60;99.90
15617;DHT22;7908;51.688;7.130;2023-05-23T06:38:36;14.50;99.90
15617;DHT22;7908;51.688;7.130;2023-05-23T06:41:05;14.50;99.90
15617;DHT22;7908;51.688;7.130;2023-05-23T06:43:34;14.50;99.90
15617;DHT22;7908;51.688;7.130;2023-05-23T06:46:03;14.50;99.90
15617;DHT22;7908;51.688;7.130;2023-05-23T06:48:33;14.50;99.90
15617;DHT22;7908;51.688;7.130;2023-05-23T06:51:04;14.50;99.90
15617;DHT22;7908;51.688;7.130;2023-05-23T06:53:35;14.50;99.90
15617;DHT22;7908;51.688;7.130;2023-05-23T06:56:07;14.40;99.90
15617;DHT22;7908;51.688;7.130;2023-05-23T06:58:36;14.40;99.90
15617;DHT22;7908;51.688;7.130;2023-05-23T07:01:05;14.40;99.90
15617;DHT22;7908;51.688;7.130;2023-05-23T07:03:37;14.40;99.90
15617;DHT22;7908;51.688;7.130;2023-05-23T07:06:08;14.40;99.90
15617;DHT22;7908;51.688;7.130;2023-05-23T07:08:39;14.40;99.90
15617;DHT22;7908;51.688;7.130;2023-05-23T07:11:12;14.40;99.90
15617;DHT22;7908;51.688;7.130;2023-05-23T07:13:44;14.50;99.90
15617;DHT22;7908;51.688;7.130;2023-05-23T07:16:13;14.50;99.90
15617;DHT22;7908;51.688;7.130;2023-05-23T07:18:42;14.50;99.90
15617;DHT22;7908;51.688;7.130;2023-05-23T07:21:12;14.50;99.90
15617;DHT22;7908;51.688;7.130;2023-05-23T07:23:43;14.50;99.90
15617;DHT22;7908;51.688;7.130;2023-05-23T07:26:12;14.50;99.90
15617;DHT22;7908;51.688;7.130;2023-05-23T07:28:43;14.60;99.90
15617;DHT22;7908;51.688;7.130;2023-05-23T07:31:13;14.60;99.90
15617;DHT22;7908;51.688;7.130;2023-05-23T07:33:50;14.50;99.90
15617;DHT22;7908;51.688;7.130;2023-05-23T07:36:23;14.40;99.90
15617;DHT22;7908;51.688;7.130;2023-05-23T07:38:54;14.40;99.90
15617;DHT22;7908;51.688;7.130;2023-05-23T07:41:23;14.30;99.90
15617;DHT22;7908;51.688;7.130;2023-05-23T07:43:56;14.30;99.90
15617;DHT22;7908;51.688;7.130;2023-05-23T07:46:27;14.20;99.90
15617;DHT22;7908;51.688;7.130;2023-05-23T07:48:58;14.30;99.90
15617;DHT22;7908;51.688;7.130;2023-05-23T07:51:27;14.20;99.90
15617;DHT22;7908;51.688;7.130;2023-05-23T07:54:00;14.20;99.90
15617;DHT22;7908;51.688;7.130;2023-05-23T07:56:29;14.20;99.90
15617;DHT22;7908;51.688;7.130;2023-05-23T07:58:58;14.10;99.90
15617;DHT22;7908;51.688;7.130;2023-05-23T08:01:28;14.20;99.90
15617;DHT22;7908;51.688;7.130;2023-05-23T08:04:01;14.10;99.90
15617;DHT22;7908;51.688;7.130;2023-05-23T08:06:31;14.10;99.90
15617;DHT22;7908;51.688;7.130;2023-05-23T08:09:04;14.10;99.90
15617;DHT22;7908;51.688;7.130;2023-05-23T08:11:33;14.10;99.90
15617;DHT22;7908;51.688;7.130;2023-05-23T08:14:02;14.00;99.90
15617;DHT22;7908;51.688;7.130;2023-05-23T08:16:34;14.00;99.90
15617;DHT22;7908;51.688;7.130;2023-05-23T08:19:05;14.00;99.90
15617;DHT22;7908;51.688;7.130;2023-05-23T08:21:37;14.00;99.90
15617;DHT22;7908;51.688;7.130;2023-05-23T08:24:09;14.00;99.90
15617;DHT22;7908;51.688;7.130;2023-05-23T08:26:41;14.00;99.90
15617;DHT22;7908;51.688;7.130;2023-05-23T08:29:13;14.00;99.90
15617;DHT22;7908;51.688;7.130;2023-05-23T08:31:45;14.00;99.90
15617;DHT22;7908;51.688;7.130;2023-05-23T08:34:22;14.00;99.90
15617;DHT22;7908;51.688;7.130;2023-05-23T08:36:57;14.00;99.90
15617;DHT22;7908;51.688;7.130;2023-05-23T08:39:35;13.90;99.90
15617;DHT22;7908;51.688;7.130;2023-05-23T08:42:05;13.70;99.90
15617;DHT22;7908;51.688;7.130;2023-05-23T08:44:33;13.70;99.90
15617;DHT22;7908;51.688;7.130;2023-05-23T08:47:07;13.70;99.90
15617;DHT22;7908;51.688;7.130;2023-05-23T08:49:44;13.80;99.90
15617;DHT22;7908;51.688;7.130;2023-05-23T08:52:17;13.80;99.90
15617;DHT22;7908;51.688;7.130;2023-05-23T08:54:51;13.70;99.90
15617;DHT22;7908;51.688;7.130;2023-05-23T08:57:22;13.60;99.90
15617;DHT22;7908;51.688;7.130;2023-05-23T08:59:52;13.60;99.90
15617;DHT22;7908;51.688;7.130;2023-05-23T09:02:21;13.70;99.90
15617;DHT22;7908;51.688;7.130;2023-05-23T09:04:50;13.80;99.90
15617;DHT22;7908;51.688;7.130;2023-05-23T09:07:20;13.80;99.90
15617;DHT22;7908;51.688;7.130;2023-05-23T09:09:54;13.70;99.90
15617;DHT22;7908;51.688;7.130;2023-05-23T09:12:28;13.70;99.90
15617;DHT22;7908;51.688;7.130;2023-05-23T09:15:00;13.70;99.90
15617;DHT22;7908;51.688;7.130;2023-05-23T09:17:31;13.80;99.90
15617;DHT22;7908;51.688;7.130;2023-05-23T09:20:01;13.80;99.90
15617;DHT22;7908;51.688;7.130;2023-05-23T09:22:37;13.90;99.90
15617;DHT22;7908;51.688;7.130;2023-05-23T09:25:08;13.90;99.90
15617;DHT22;7908;51.688;7.130;2023-05-23T09:27:38;13.90;99.90
15617;DHT22;7908;51.688;7.130;2023-05-23T09:30:13;13.90;99.90
15617;DHT22;7908;51.688;7.130;2023-05-23T09:33:03;13.90;99.90
15617;DHT22;7908;51.688;7.130;2023-05-23T09:35:35;13.80;99.90
15617;DHT22;7908;51.688;7.130;2023-05-23T09:38:15;13.70;99.90
15617;DHT22;7908;51.688;7.130;2023-05-23T09:40:53;13.60;99.90
15617;DHT22;7908;51.688;7.130;2023-05-23T09:43:27;13.50;99.90
15617;DHT22;7908;51.688;7.130;2023-05-23T09:46:02;13.50;99.90
15617;DHT22;7908;51.688;7.130;2023-05-23T09:48:46;13.50;99.90
15617;DHT22;7908;51.688;7.130;2023-05-23T09:51:18;13.50;99.90
15617;DHT22;7908;51.688;7.130;2023-05-23T09:53:49;13.50;99.90
15617;DHT22;7908;51.688;7.130;2023-05-23T09:56:26;13.50;99.90
15617;DHT22;7908;51.688;7.130;2023-05-23T09:58:56;13.50;99.90
15617;DHT22;7908;51.688;7.130;2023-05-23T10:01:31;13.50;99.90
15617;DHT22;7908;51.688;7.130;2023-05-23T10:04:06;13.50;99.90
15617;DHT22;7908;51.688;7.130;2023-05-23T10:06:49;13.50;99.90
15617;DHT22;7908;51.688;7.130;2023-05-23T10:09:24;13.60;99.90
15617;DHT22;7908;51.688;7.130;2023-05-23T10:15:15;14.10;99.90
15617;DHT22;7908;51.688;7.130;2023-05-23T10:18:05;14.40;99.90
15617;DHT22;7908;51.688;7.130;2023-05-23T10:20:49;14.50;99.90
15617;DHT22;7908;51.688;7.130;2023-05-23T10:23:27;14.70;99.90
15617;DHT22;7908;51.688;7.130;2023-05-23T10:26:03;14.70;99.90
15617;DHT22;7908;51.688;7.130;2023-05-23T10:28:39;14.70;99.90
15617;DHT22;7908;51.688;7.130;2023-05-23T10:31:13;14.80;99.90
15617;DHT22;7908;51.688;7.130;2023-05-23T10:33:51;14.80;99.90
15617;DHT22;7908;51.688;7.130;2023-05-23T10:36:29;14.80;99.90
15617;DHT22;7908;51.688;7.130;2023-05-23T10:39:15;14.90;99.90
15617;DHT22;7908;51.688;7.130;2023-05-23T10:42:10;14.90;99.90
15617;DHT22;7908;51.688;7.130;2023-05-23T10:44:52;14.90;99.90
15617;DHT22;7908;51.688;7.130;2023-05-23T10:47:31;15.00;99.90
15617;DHT22;7908;51.688;7.130;2023-05-23T10:50:04;15.10;99.90
15617;DHT22;7908;51.688;7.130;2023-05-23T10:52:40;15.20;99.90
15617;DHT22;7908;51.688;7.130;2023-05-23T10:55:14;15.20;99.90
15617;DHT22;7908;51.688;7.130;2023-05-23T10:58:17;15.10;99.90
15617;DHT22;7908;51.688;7.130;2023-05-23T11:00:59;15.00;99.90
15617;DHT22;7908;51.688;7.130;2023-05-23T11:03:50;14.90;99.90
15617;DHT22;7908;51.688;7.130;2023-05-23T11:06:36;15.00;99.90
15617;DHT22;7908;51.688;7.130;2023-05-23T11:09:15;15.10;99.90
15617;DHT22;7908;51.688;7.130;2023-05-23T11:11:58;15.30;99.90
15617;DHT22;7908;51.688;7.130;2023-05-23T11:14:41;15.50;99.90
15617;DHT22;7908;51.688;7.130;2023-05-23T11:17:34;15.70;99.90
15617;DHT22;7908;51.688;7.130;2023-05-23T11:20:19;15.80;99.90
15617;DHT22;7908;51.688;7.130;2023-05-23T11:23:04;15.90;99.90
15617;DHT22;7908;51.688;7.130;2023-05-23T11:25:55;15.80;99.90
15617;DHT22;7908;51.688;7.130;2023-05-23T11:28:54;15.90;99.90
15617;DHT22;7908;51.688;7.130;2023-05-23T11:31:37;15.90;99.90
15617;DHT22;7908;51.688;7.130;2023-05-23T11:34:10;16.00;99.90
15617;DHT22;7908;51.688;7.130;2023-05-23T11:36:46;16.10;99.90
15617;DHT22;7908;51.688;7.130;2023-05-23T11:39:23;16.00;99.90
15617;DHT22;7908;51.688;7.130;2023-05-23T11:42:02;15.90;99.90
15617;DHT22;7908;51.688;7.130;2023-05-23T11:44:35;15.90;99.90
15617;DHT22;7908;51.688;7.130;2023-05-23T11:47:13;16.10;99.90
15617;DHT22;7908;51.688;7.130;2023-05-23T11:49:47;16.10;99.90
15617;DHT22;7908;51.688;7.130;2023-05-23T11:52:24;16.10;99.90
15617;DHT22;7908;51.688;7.130;2023-05-23T11:55:10;16.10;99.90
15617;DHT22;7908;51.688;7.130;2023-05-23T11:57:51;16.20;99.90
15617;DHT22;7908;51.688;7.130;2023-05-23T12:00:29;16.40;99.90
15617;DHT22;7908;51.688;7.130;2023-05-23T12:03:07;16.50;99.90
15617;DHT22;7908;51.688;7.130;2023-05-23T12:05:42;16.60;99.90
15617;DHT22;7908;51.688;7.130;2023-05-23T12:08:28;16.60;99.90
15617;DHT22;7908;51.688;7.130;2023-05-23T12:11:04;16.50;99.90
15617;DHT22;7908;51.688;7.130;2023-05-23T12:13:44;16.70;99.90
15617;DHT22;7908;51.688;7.130;2023-05-23T12:16:21;16.80;99.90
15617;DHT22;7908;51.688;7.130;2023-05-23T12:18:56;16.90;99.90
15617;DHT22;7908;51.688;7.130;2023-05-23T12:21:39;16.90;99.90
15617;DHT22;7908;51.688;7.130;2023-05-23T12:24:15;16.90;99.90
15617;DHT22;7908;51.688;7.130;2023-05-23T12:26:50;17.10;99.90
15617;DHT22;7908;51.688;7.130;2023-05-23T12:29:31;17.20;99.90
15617;DHT22;7908;51.688;7.130;2023-05-23T12:32:03;17.30;99.90
15617;DHT22;7908;51.688;7.130;2023-05-23T12:34:50;17.30;99.90
15617;DHT22;7908;51.688;7.130;2023-05-23T12:37:21;17.30;99.90
15617;DHT22;7908;51.688;7.130;2023-05-23T12:40:12;17.30;99.90
15617;DHT22;7908;51.688;7.130;2023-05-23T12:42:45;17.50;99.90
15617;DHT22;7908;51.688;7.130;2023-05-23T12:45:18;17.80;99.90
15617;DHT22;7908;51.688;7.130;2023-05-23T12:47:57;17.80;99.90
15617;DHT22;7908;51.688;7.130;2023-05-23T12:50:41;17.80;99.90
15617;DHT22;7908;51.688;7.130;2023-05-23T12:53:20;17.50;99.90
15617;DHT22;7908;51.688;7.130;2023-05-23T12:55:53;17.60;99.90
15617;DHT22;7908;51.688;7.130;2023-05-23T12:58:30;17.80;99.90
15617;DHT22;7908;51.688;7.130;2023-05-23T13:01:02;17.90;99.90
15617;DHT22;7908;51.688;7.130;2023-05-23T13:03:38;17.90;99.90
15617;DHT22;7908;51.688;7.130;2023-05-23T13:06:14;17.80;99.90
15617;DHT22;7908;51.688;7.130;2023-05-23T13:08:50;17.60;99.90
15617;DHT22;7908;51.688;7.130;2023-05-23T13:11:40;17.50;99.90
15617;DHT22;7908;51.688;7.130;2023-05-23T13:14:19;17.60;99.90
15617;DHT22;7908;51.688;7.130;2023-05-23T13:16:51;17.70;99.90
15617;DHT22;7908;51.688;7.130;2023-05-23T13:19:37;17.80;99.90
15617;DHT22;7908;51.688;7.130;2023-05-23T13:22:11;17.90;99.90
15617;DHT22;7908;51.688;7.130;2023-05-23T13:24:52;18.00;99.90
15617;DHT22;7908;51.688;7.130;2023-05-23T13:27:37;18.10;99.90
15617;DHT22;7908;51.688;7.130;2023-05-23T13:30:12;18.00;99.90
15617;DHT22;7908;51.688;7.130;2023-05-23T13:32:43;17.90;99.90
15617;DHT22;7908;51.688;7.130;2023-05-23T13:35:23;17.90;99.90
15617;DHT22;7908;51.688;7.130;2023-05-23T13:37:54;17.60;99.90
15617;DHT22;7908;51.688;7.130;2023-05-23T13:40:26;17.50;99.90
15617;DHT22;7908;51.688;7.130;2023-05-23T13:43:05;17.50;99.90
15617;DHT22;7908;51.688;7.130;2023-05-23T13:45:43;17.60;99.90
15617;DHT22;7908;51.688;7.130;2023-05-23T13:48:20;17.70;99.90
15617;DHT22;7908;51.688;7.130;2023-05-23T13:50:53;17.80;99.90
15617;DHT22;7908;51.688;7.130;2023-05-23T13:53:30;17.80;99.90
15617;DHT22;7908;51.688;7.130;2023-05-23T13:56:19;18.00;99.90
15617;DHT22;7908;51.688;7.130;2023-05-23T13:58:52;18.30;99.90
15617;DHT22;7908;51.688;7.130;2023-05-23T14:01:23;18.50;99.90
15617;DHT22;7908;51.688;7.130;2023-05-23T14:04:03;18.60;99.90
15617;DHT22;7908;51.688;7.130;2023-05-23T14:06:36;18.70;99.90
15617;DHT22;7908;51.688;7.130;2023-05-23T14:09:13;18.70;99.90
15617;DHT22;7908;51.688;7.130;2023-05-23T14:11:56;18.60;99.90
15617;DHT22;7908;51.688;7.130;2023-05-23T14:14:28;18.30;99.90
15617;DHT22;7908;51.688;7.130;2023-05-23T14:17:08;18.20;99.90
15617;DHT22;7908;51.688;7.130;2023-05-23T14:19:44;18.10;99.90
15617;DHT22;7908;51.688;7.130;2023-05-23T14:22:16;17.90;99.90
15617;DHT22;7908;51.688;7.130;2023-05-23T14:25:09;17.80;99.90
15617;DHT22;7908;51.688;7.130;2023-05-23T14:27:41;17.80;99.90
15617;DHT22;7908;51.688;7.130;2023-05-23T14:30:14;17.90;99.90
15617;DHT22;7908;51.688;7.130;2023-05-23T14:32:48;18.00;99.90
15617;DHT22;7908;51.688;7.130;2023-05-23T14:35:31;18.00;99.90
15617;DHT22;7908;51.688;7.130;2023-05-23T14:38:03;18.10;99.90
15617;DHT22;7908;51.688;7.130;2023-05-23T14:40:34;18.10;99.90
15617;DHT22;7908;51.688;7.130;2023-05-23T14:43:10;18.10;99.90
15617;DHT22;7908;51.688;7.130;2023-05-23T14:45:48;18.00;99.90
15617;DHT22;7908;51.688;7.130;2023-05-23T14:48:25;18.00;99.90
15617;DHT22;7908;51.688;7.130;2023-05-23T14:51:01;18.20;99.90
15617;DHT22;7908;51.688;7.130;2023-05-23T14:53:32;18.10;99.90
15617;DHT22;7908;51.688;7.130;2023-05-23T14:56:19;17.90;99.90
15617;DHT22;7908;51.688;7.130;2023-05-23T14:58:50;17.80;99.90
15617;DHT22;7908;51.688;7.130;2023-05-23T15:01:34;17.90;99.90
15617;DHT22;7908;51.688;7.130;2023-05-23T15:04:15;18.10;99.90
15617;DHT22;7908;51.688;7.130;2023-05-23T15:06:50;18.10;99.90
15617;DHT22;7908;51.688;7.130;2023-05-23T15:09:26;18.10;99.90
15617;DHT22;7908;51.688;7.130;2023-05-23T15:11:57;18.00;99.90
15617;DHT22;7908;51.688;7.130;2023-05-23T15:14:34;17.90;99.90
15617;DHT22;7908;51.688;7.130;2023-05-23T15:17:12;17.90;99.90
15617;DHT22;7908;51.688;7.130;2023-05-23T15:19:49;17.80;99.90
15617;DHT22;7908;51.688;7.130;2023-05-23T15:22:24;17.70;99.90
15617;DHT22;7908;51.688;7.130;2023-05-23T15:25:07;17.50;99.90
15617;DHT22;7908;51.688;7.130;2023-05-23T15:27:41;17.60;99.90
15617;DHT22;7908;51.688;7.130;2023-05-23T15:30:12;17.70;99.90
15617;DHT22;7908;51.688;7.130;2023-05-23T15:32:45;17.70;99.90
15617;DHT22;7908;51.688;7.130;2023-05-23T15:35:23;17.60;99.90
15617;DHT22;7908;51.688;7.130;2023-05-23T15:37:55;17.60;99.90
15617;DHT22;7908;51.688;7.130;2023-05-23T15:40:27;17.60;99.90
15617;DHT22;7908;51.688;7.130;2023-05-23T15:42:58;17.70;99.90
15617;DHT22;7908;51.688;7.130;2023-05-23T15:45:33;17.70;99.90
15617;DHT22;7908;51.688;7.130;2023-05-23T15:48:12;17.70;99.90
15617;DHT22;7908;51.688;7.130;2023-05-23T15:50:49;17.70;99.90
15617;DHT22;7908;51.688;7.130;2023-05-23T15:53:20;17.70;99.90
15617;DHT22;7908;51.688;7.130;2023-05-23T15:55:52;17.50;99.90
15617;DHT22;7908;51.688;7.130;2023-05-23T15:58:21;17.40;99.90
15617;DHT22;7908;51.688;7.130;2023-05-23T16:01:02;17.30;99.90
15617;DHT22;7908;51.688;7.130;2023-05-23T16:03:44;17.10;99.90
15617;DHT22;7908;51.688;7.130;2023-05-23T16:06:29;17.00;99.90
15617;DHT22;7908;51.688;7.130;2023-05-23T16:09:00;17.10;99.90
15617;DHT22;7908;51.688;7.130;2023-05-23T16:11:41;17.30;99.90
15617;DHT22;7908;51.688;7.130;2023-05-23T16:14:20;17.40;99.40
15617;DHT22;7908;51.688;7.130;2023-05-23T16:16:52;17.50;99.10
15617;DHT22;7908;51.688;7.130;2023-05-23T16:19:37;17.40;99.90
15617;DHT22;7908;51.688;7.130;2023-05-23T16:22:14;17.40;99.90
15617;DHT22;7908;51.688;7.130;2023-05-23T16:24:47;17.40;99.90
15617;DHT22;7908;51.688;7.130;2023-05-23T16:27:23;17.40;99.90